sensor_id;sensor_type;location;lat;lon;timestamp;P1;durP1;ratioP1;P2;durP2;ratioP2
17528;SDS011;8882;53.192;8.184;2023-04-24T04:30:52;4.13;;;2.93;;
17528;SDS011;8882;53.192;8.184;2023-04-24T04:33:19;3.60;;;2.80;;
17528;SDS011;8882;53.192;8.184;2023-04-24T04:35:45;4.57;;;3.37;;
17528;SDS011;8882;53.192;8.184;2023-04-24T04:38:13;4.10;;;3.23;;
17528;SDS011;8882;53.192;8.184;2023-04-24T04:40:39;4.70;;;3.03;;
17528;SDS011;8882;53.192;8.184;2023-04-24T04:43:05;3.97;;;3.17;;
17528;SDS011;8882;53.192;8.184;2023-04-24T04:45:31;4.23;;;3.50;;
17528;SDS011;8882;53.192;8.184;2023-04-24T04:47:58;5.30;;;3.93;;
17528;SDS011;8882;53.192;8.184;2023-04-24T04:50:25;4.80;;;4.03;;
17528;SDS011;8882;53.192;8.184;2023-04-24T04:52:51;4.63;;;3.57;;
17528;SDS011;8882;53.192;8.184;2023-04-24T04:55:17;6.23;;;3.37;;
17528;SDS011;8882;53.192;8.184;2023-04-24T04:57:44;5.33;;;3.83;;
17528;SDS011;8882;53.192;8.184;2023-04-24T05:00:10;6.27;;;4.33;;
17528;SDS011;8882;53.192;8.184;2023-04-24T05:02:37;6.10;;;4.37;;
17528;SDS011;8882;53.192;8.184;2023-04-24T05:05:02;5.00;;;3.60;;
17528;SDS011;8882;53.192;8.184;2023-04-24T05:07:28;7.20;;;4.23;;
17528;SDS011;8882;53.192;8.184;2023-04-24T05:09:54;8.03;;;4.67;;
17528;SDS011;8882;53.192;8.184;2023-04-24T05:12:19;6.57;;;4.97;;
17528;SDS011;8882;53.192;8.184;2023-04-24T05:14:45;6.70;;;4.97;;
17528;SDS011;8882;53.192;8.184;2023-04-24T05:17:10;8.53;;;4.90;;
17528;SDS011;8882;53.192;8.184;2023-04-24T05:19:36;5.67;;;4.30;;
17528;SDS011;8882;53.192;8.184;2023-04-24T05:22:03;5.50;;;4.07;;
17528;SDS011;8882;53.192;8.184;2023-04-24T05:24:31;8.17;;;4.30;;
17528;SDS011;8882;53.192;8.184;2023-04-24T05:27:00;6.97;;;4.10;;
17528;SDS011;8882;53.192;8.184;2023-04-24T05:29:27;6.50;;;4.63;;
17528;SDS011;8882;53.192;8.184;2023-04-24T05:31:52;9.90;;;5.10;;
17528;SDS011;8882;53.192;8.184;2023-04-24T05:34:18;6.83;;;4.57;;
17528;SDS011;8882;53.192;8.184;2023-04-24T05:36:43;7.03;;;4.77;;
17528;SDS011;8882;53.192;8.184;2023-04-24T05:39:09;6.17;;;4.60;;
17528;SDS011;8882;53.192;8.184;2023-04-24T05:41:35;6.70;;;4.37;;
17528;SDS011;8882;53.192;8.184;2023-04-24T05:44:00;8.30;;;4.50;;
17528;SDS011;8882;53.192;8.184;2023-04-24T05:46:26;6.37;;;4.40;;
17528;SDS011;8882;53.192;8.184;2023-04-24T05:48:51;6.47;;;4.43;;
17528;SDS011;8882;53.192;8.184;2023-04-24T05:51:17;7.97;;;5.03;;
17528;SDS011;8882;53.192;8.184;2023-04-24T05:53:42;6.90;;;4.73;;
17528;SDS011;8882;53.192;8.184;2023-04-24T05:56:08;7.13;;;4.40;;
17528;SDS011;8882;53.192;8.184;2023-04-24T05:58:33;7.37;;;4.40;;
17528;SDS011;8882;53.192;8.184;2023-04-24T06:00:59;7.63;;;4.77;;
17528;SDS011;8882;53.192;8.184;2023-04-24T06:03:26;6.13;;;4.60;;
17528;SDS011;8882;53.192;8.184;2023-04-24T06:05:52;6.03;;;4.50;;
17528;SDS011;8882;53.192;8.184;2023-04-24T06:08:18;6.20;;;4.30;;
17528;SDS011;8882;53.192;8.184;2023-04-24T06:10:43;8.10;;;4.90;;
17528;SDS011;8882;53.192;8.184;2023-04-24T06:13:09;7.40;;;4.63;;
17528;SDS011;8882;53.192;8.184;2023-04-24T06:15:35;8.67;;;5.13;;
17528;SDS011;8882;53.192;8.184;2023-04-24T06:18:00;8.73;;;5.63;;
17528;SDS011;8882;53.192;8.184;2023-04-24T06:20:26;7.13;;;5.10;;
17528;SDS011;8882;53.192;8.184;2023-04-24T06:22:51;6.33;;;4.77;;
17528;SDS011;8882;53.192;8.184;2023-04-24T06:25:17;9.17;;;5.47;;
17528;SDS011;8882;53.192;8.184;2023-04-24T06:27:43;6.80;;;4.70;;
17528;SDS011;8882;53.192;8.184;2023-04-24T06:30:09;6.33;;;4.60;;
17528;SDS011;8882;53.192;8.184;2023-04-24T06:32:35;8.73;;;4.90;;
17528;SDS011;8882;53.192;8.184;2023-04-24T06:35:01;7.93;;;4.80;;
17528;SDS011;8882;53.192;8.184;2023-04-24T06:37:26;8.80;;;5.07;;
17528;SDS011;8882;53.192;8.184;2023-04-24T06:39:52;9.17;;;5.23;;
17528;SDS011;8882;53.192;8.184;2023-04-24T06:42:18;8.03;;;4.70;;
17528;SDS011;8882;53.192;8.184;2023-04-24T06:44:45;7.03;;;4.63;;
17528;SDS011;8882;53.192;8.184;2023-04-24T06:47:11;6.83;;;4.90;;
17528;SDS011;8882;53.192;8.184;2023-04-24T06:49:38;6.73;;;4.87;;
17528;SDS011;8882;53.192;8.184;2023-04-24T06:52:05;8.13;;;5.37;;
17528;SDS011;8882;53.192;8.184;2023-04-24T06:54:31;7.23;;;4.93;;
17528;SDS011;8882;53.192;8.184;2023-04-24T06:56:57;6.00;;;4.50;;
17528;SDS011;8882;53.192;8.184;2023-04-24T06:59:24;7.13;;;4.83;;
17528;SDS011;8882;53.192;8.184;2023-04-24T07:01:49;12.40;;;5.73;;
17528;SDS011;8882;53.192;8.184;2023-04-24T07:04:16;6.70;;;4.87;;
17528;SDS011;8882;53.192;8.184;2023-04-24T07:06:42;7.13;;;4.83;;
17528;SDS011;8882;53.192;8.184;2023-04-24T07:09:08;8.37;;;5.03;;
17528;SDS011;8882;53.192;8.184;2023-04-24T07:11:34;8.57;;;5.50;;
17528;SDS011;8882;53.192;8.184;2023-04-24T07:14:00;9.03;;;5.50;;
17528;SDS011;8882;53.192;8.184;2023-04-24T07:16:25;9.20;;;5.30;;
17528;SDS011;8882;53.192;8.184;2023-04-24T07:18:52;10.63;;;5.37;;
17528;SDS011;8882;53.192;8.184;2023-04-24T07:21:17;8.53;;;5.10;;
17528;SDS011;8882;53.192;8.184;2023-04-24T07:23:43;7.53;;;4.73;;
17528;SDS011;8882;53.192;8.184;2023-04-24T07:26:08;6.77;;;4.93;;
17528;SDS011;8882;53.192;8.184;2023-04-24T07:28:34;5.90;;;4.10;;
17528;SDS011;8882;53.192;8.184;2023-04-24T07:30:59;8.67;;;5.77;;
17528;SDS011;8882;53.192;8.184;2023-04-24T07:33:25;8.97;;;5.80;;
17528;SDS011;8882;53.192;8.184;2023-04-24T07:35:51;9.20;;;5.57;;
17528;SDS011;8882;53.192;8.184;2023-04-24T07:38:17;9.47;;;5.20;;
17528;SDS011;8882;53.192;8.184;2023-04-24T07:40:46;8.50;;;5.53;;
17528;SDS011;8882;53.192;8.184;2023-04-24T07:43:11;8.33;;;5.53;;
17528;SDS011;8882;53.192;8.184;2023-04-24T07:45:37;7.10;;;5.30;;
17528;SDS011;8882;53.192;8.184;2023-04-24T07:48:04;8.33;;;5.50;;
17528;SDS011;8882;53.192;8.184;2023-04-24T07:50:30;10.50;;;5.83;;
17528;SDS011;8882;53.192;8.184;2023-04-24T07:52:55;9.10;;;5.87;;
17528;SDS011;8882;53.192;8.184;2023-04-24T07:55:21;8.10;;;4.97;;
17528;SDS011;8882;53.192;8.184;2023-04-24T07:57:46;9.47;;;5.73;;
17528;SDS011;8882;53.192;8.184;2023-04-24T08:00:12;8.57;;;4.83;;
17528;SDS011;8882;53.192;8.184;2023-04-24T08:02:38;7.47;;;5.33;;
17528;SDS011;8882;53.192;8.184;2023-04-24T08:05:04;9.40;;;6.40;;
17528;SDS011;8882;53.192;8.184;2023-04-24T08:07:30;10.53;;;6.00;;
17528;SDS011;8882;53.192;8.184;2023-04-24T08:09:56;8.83;;;5.33;;
17528;SDS011;8882;53.192;8.184;2023-04-24T08:12:21;9.53;;;5.30;;
17528;SDS011;8882;53.192;8.184;2023-04-24T08:14:47;7.77;;;5.13;;
17528;SDS011;8882;53.192;8.184;2023-04-24T08:17:12;6.13;;;5.13;;
17528;SDS011;8882;53.192;8.184;2023-04-24T08:19:39;7.83;;;5.20;;
17528;SDS011;8882;53.192;8.184;2023-04-24T08:22:09;6.73;;;4.27;;
17528;SDS011;8882;53.192;8.184;2023-04-24T08:24:34;7.67;;;4.63;;
17528;SDS011;8882;53.192;8.184;2023-04-24T08:27:01;5.70;;;4.50;;
17528;SDS011;8882;53.192;8.184;2023-04-24T08:29:27;9.03;;;5.27;;
17528;SDS011;8882;53.192;8.184;2023-04-24T08:31:52;6.93;;;4.40;;
17528;SDS011;8882;53.192;8.184;2023-04-24T08:34:19;6.87;;;4.50;;
17528;SDS011;8882;53.192;8.184;2023-04-24T08:36:45;5.47;;;4.30;;
17528;SDS011;8882;53.192;8.184;2023-04-24T08:39:11;4.77;;;3.60;;
17528;SDS011;8882;53.192;8.184;2023-04-24T08:41:36;6.47;;;4.10;;
17528;SDS011;8882;53.192;8.184;2023-04-24T08:44:03;5.87;;;3.90;;
17528;SDS011;8882;53.192;8.184;2023-04-24T08:46:29;6.53;;;3.87;;
17528;SDS011;8882;53.192;8.184;2023-04-24T08:48:55;7.33;;;4.10;;
17528;SDS011;8882;53.192;8.184;2023-04-24T08:51:22;5.97;;;4.00;;
17528;SDS011;8882;53.192;8.184;2023-04-24T08:53:51;5.17;;;3.63;;
17528;SDS011;8882;53.192;8.184;2023-04-24T08:56:19;4.73;;;3.67;;
17528;SDS011;8882;53.192;8.184;2023-04-24T08:58:48;4.57;;;3.40;;
17528;SDS011;8882;53.192;8.184;2023-04-24T09:01:20;4.53;;;3.37;;
17528;SDS011;8882;53.192;8.184;2023-04-24T09:03:48;5.17;;;3.50;;
17528;SDS011;8882;53.192;8.184;2023-04-24T09:06:14;3.87;;;3.20;;
17528;SDS011;8882;53.192;8.184;2023-04-24T09:08:42;4.73;;;3.57;;
17528;SDS011;8882;53.192;8.184;2023-04-24T09:11:10;6.00;;;3.60;;
17528;SDS011;8882;53.192;8.184;2023-04-24T09:13:36;4.40;;;3.10;;
17528;SDS011;8882;53.192;8.184;2023-04-24T09:16:02;3.93;;;3.27;;
17528;SDS011;8882;53.192;8.184;2023-04-24T09:18:28;4.37;;;3.40;;
17528;SDS011;8882;53.192;8.184;2023-04-24T09:20:57;4.10;;;3.10;;
17528;SDS011;8882;53.192;8.184;2023-04-24T09:23:27;4.03;;;3.23;;
17528;SDS011;8882;53.192;8.184;2023-04-24T09:25:56;4.67;;;3.27;;
17528;SDS011;8882;53.192;8.184;2023-04-24T09:28:25;5.53;;;3.17;;
17528;SDS011;8882;53.192;8.184;2023-04-24T09:33:32;6.10;;;3.50;;
17528;SDS011;8882;53.192;8.184;2023-04-24T09:35:58;7.57;;;3.77;;
17528;SDS011;8882;53.192;8.184;2023-04-24T09:41:06;10.80;;;4.10;;
17528;SDS011;8882;53.192;8.184;2023-04-24T09:43:33;4.43;;;3.23;;
17528;SDS011;8882;53.192;8.184;2023-04-24T09:46:00;5.63;;;4.00;;
17528;SDS011;8882;53.192;8.184;2023-04-24T09:48:34;6.53;;;4.37;;
17528;SDS011;8882;53.192;8.184;2023-04-24T09:51:03;5.93;;;3.60;;
17528;SDS011;8882;53.192;8.184;2023-04-24T09:53:32;4.90;;;3.53;;
17528;SDS011;8882;53.192;8.184;2023-04-24T09:56:07;5.23;;;4.13;;
17528;SDS011;8882;53.192;8.184;2023-04-24T09:58:35;5.57;;;3.93;;
17528;SDS011;8882;53.192;8.184;2023-04-24T10:01:01;4.77;;;3.33;;
17528;SDS011;8882;53.192;8.184;2023-04-24T10:03:29;4.40;;;3.10;;
17528;SDS011;8882;53.192;8.184;2023-04-24T10:05:59;4.50;;;3.37;;
17528;SDS011;8882;53.192;8.184;2023-04-24T10:08:26;4.97;;;3.47;;
17528;SDS011;8882;53.192;8.184;2023-04-24T10:10:57;4.13;;;2.67;;
17528;SDS011;8882;53.192;8.184;2023-04-24T10:13:24;5.20;;;3.23;;
17528;SDS011;8882;53.192;8.184;2023-04-24T10:15:50;4.27;;;3.13;;
17528;SDS011;8882;53.192;8.184;2023-04-24T10:18:16;4.03;;;2.73;;
17528;SDS011;8882;53.192;8.184;2023-04-24T10:20:42;3.80;;;2.77;;
17528;SDS011;8882;53.192;8.184;2023-04-24T10:23:08;4.17;;;2.97;;
17528;SDS011;8882;53.192;8.184;2023-04-24T10:25:34;3.87;;;2.70;;
17528;SDS011;8882;53.192;8.184;2023-04-24T10:28:01;2.67;;;2.10;;
17528;SDS011;8882;53.192;8.184;2023-04-24T10:30:29;3.30;;;2.63;;
17528;SDS011;8882;53.192;8.184;2023-04-24T10:32:59;3.13;;;2.30;;
17528;SDS011;8882;53.192;8.184;2023-04-24T10:35:26;3.70;;;2.70;;
17528;SDS011;8882;53.192;8.184;2023-04-24T10:37:55;3.97;;;3.00;;
17528;SDS011;8882;53.192;8.184;2023-04-24T10:40:31;4.17;;;2.63;;
17528;SDS011;8882;53.192;8.184;2023-04-24T10:42:58;3.17;;;2.40;;
17528;SDS011;8882;53.192;8.184;2023-04-24T10:45:24;2.43;;;2.13;;
17528;SDS011;8882;53.192;8.184;2023-04-24T10:48:01;2.60;;;2.00;;
17528;SDS011;8882;53.192;8.184;2023-04-24T10:50:27;3.20;;;2.37;;
17528;SDS011;8882;53.192;8.184;2023-04-24T10:53:09;3.20;;;2.53;;
17528;SDS011;8882;53.192;8.184;2023-04-24T10:55:43;3.40;;;2.77;;
17528;SDS011;8882;53.192;8.184;2023-04-24T10:58:16;4.73;;;3.37;;
17528;SDS011;8882;53.192;8.184;2023-04-24T11:00:55;4.10;;;2.83;;
17528;SDS011;8882;53.192;8.184;2023-04-24T11:03:31;2.83;;;2.30;;
17528;SDS011;8882;53.192;8.184;2023-04-24T11:06:02;3.90;;;2.80;;
17528;SDS011;8882;53.192;8.184;2023-04-24T11:08:30;3.20;;;2.20;;
17528;SDS011;8882;53.192;8.184;2023-04-24T11:11:07;3.07;;;2.30;;
17528;SDS011;8882;53.192;8.184;2023-04-24T11:22:03;2.40;;;2.03;;
17528;SDS011;8882;53.192;8.184;2023-04-24T11:32:19;3.13;;;2.30;;
17528;SDS011;8882;53.192;8.184;2023-04-24T11:34:50;3.03;;;2.37;;
17528;SDS011;8882;53.192;8.184;2023-04-24T11:37:17;2.37;;;2.10;;
17528;SDS011;8882;53.192;8.184;2023-04-24T11:39:42;2.27;;;1.87;;
17528;SDS011;8882;53.192;8.184;2023-04-24T11:42:08;2.17;;;1.73;;
17528;SDS011;8882;53.192;8.184;2023-04-24T11:44:34;2.50;;;1.70;;
17528;SDS011;8882;53.192;8.184;2023-04-24T11:47:02;2.53;;;1.93;;
17528;SDS011;8882;53.192;8.184;2023-04-24T11:49:29;1.93;;;1.83;;
17528;SDS011;8882;53.192;8.184;2023-04-24T11:51:55;2.83;;;1.80;;
17528;SDS011;8882;53.192;8.184;2023-04-24T11:54:21;2.77;;;1.80;;
17528;SDS011;8882;53.192;8.184;2023-04-24T11:56:47;2.40;;;2.07;;
17528;SDS011;8882;53.192;8.184;2023-04-24T11:59:13;2.93;;;2.07;;
17528;SDS011;8882;53.192;8.184;2023-04-24T12:01:42;2.20;;;1.90;;
17528;SDS011;8882;53.192;8.184;2023-04-24T12:04:09;3.87;;;2.53;;
17528;SDS011;8882;53.192;8.184;2023-04-24T12:06:35;7.73;;;3.53;;
17528;SDS011;8882;53.192;8.184;2023-04-24T12:09:00;7.23;;;4.00;;
17528;SDS011;8882;53.192;8.184;2023-04-24T12:11:26;8.37;;;3.97;;
17528;SDS011;8882;53.192;8.184;2023-04-24T12:13:51;8.53;;;5.00;;
17528;SDS011;8882;53.192;8.184;2023-04-24T12:16:17;7.97;;;5.47;;
17528;SDS011;8882;53.192;8.184;2023-04-24T12:18:43;8.73;;;6.17;;
17528;SDS011;8882;53.192;8.184;2023-04-24T12:21:18;12.07;;;6.13;;
17528;SDS011;8882;53.192;8.184;2023-04-24T12:23:45;10.30;;;6.13;;
17528;SDS011;8882;53.192;8.184;2023-04-24T12:26:12;12.53;;;6.37;;
17528;SDS011;8882;53.192;8.184;2023-04-24T12:28:41;8.77;;;5.83;;
17528;SDS011;8882;53.192;8.184;2023-04-24T12:31:07;10.60;;;6.77;;
17528;SDS011;8882;53.192;8.184;2023-04-24T12:33:33;11.20;;;5.80;;
17528;SDS011;8882;53.192;8.184;2023-04-24T12:36:00;11.13;;;6.23;;
17528;SDS011;8882;53.192;8.184;2023-04-24T12:38:27;8.07;;;5.23;;
17528;SDS011;8882;53.192;8.184;2023-04-24T12:41:11;7.57;;;5.63;;
17528;SDS011;8882;53.192;8.184;2023-04-24T12:43:38;11.43;;;5.90;;
17528;SDS011;8882;53.192;8.184;2023-04-24T12:46:15;7.73;;;5.50;;
17528;SDS011;8882;53.192;8.184;2023-04-24T12:48:40;6.87;;;5.07;;
17528;SDS011;8882;53.192;8.184;2023-04-24T12:51:06;6.33;;;4.20;;
17528;SDS011;8882;53.192;8.184;2023-04-24T12:53:31;7.70;;;4.23;;
17528;SDS011;8882;53.192;8.184;2023-04-24T12:55:57;7.10;;;4.23;;
17528;SDS011;8882;53.192;8.184;2023-04-24T12:58:23;12.47;;;4.27;;
17528;SDS011;8882;53.192;8.184;2023-04-24T13:00:48;8.40;;;4.67;;
17528;SDS011;8882;53.192;8.184;2023-04-24T13:03:14;9.00;;;4.63;;
17528;SDS011;8882;53.192;8.184;2023-04-24T13:05:40;8.27;;;4.50;;
17528;SDS011;8882;53.192;8.184;2023-04-24T13:08:07;9.60;;;4.90;;
17528;SDS011;8882;53.192;8.184;2023-04-24T13:10:32;6.30;;;4.20;;
17528;SDS011;8882;53.192;8.184;2023-04-24T13:12:59;9.30;;;4.27;;
17528;SDS011;8882;53.192;8.184;2023-04-24T13:15:24;7.27;;;3.63;;
17528;SDS011;8882;53.192;8.184;2023-04-24T13:17:50;12.77;;;5.07;;
17528;SDS011;8882;53.192;8.184;2023-04-24T13:20:15;7.90;;;4.33;;
17528;SDS011;8882;53.192;8.184;2023-04-24T13:22:42;8.00;;;4.50;;
17528;SDS011;8882;53.192;8.184;2023-04-24T13:25:07;7.80;;;4.60;;
17528;SDS011;8882;53.192;8.184;2023-04-24T13:27:34;9.50;;;5.07;;
17528;SDS011;8882;53.192;8.184;2023-04-24T13:29:59;6.27;;;3.97;;
17528;SDS011;8882;53.192;8.184;2023-04-24T13:32:25;5.80;;;4.47;;
17528;SDS011;8882;53.192;8.184;2023-04-24T13:34:51;6.63;;;3.60;;
17528;SDS011;8882;53.192;8.184;2023-04-24T13:37:17;5.67;;;3.77;;
17528;SDS011;8882;53.192;8.184;2023-04-24T13:39:42;5.73;;;3.30;;
17528;SDS011;8882;53.192;8.184;2023-04-24T13:42:08;6.60;;;3.53;;
17528;SDS011;8882;53.192;8.184;2023-04-24T13:44:33;4.80;;;3.23;;
17528;SDS011;8882;53.192;8.184;2023-04-24T13:46:59;8.53;;;3.60;;
17528;SDS011;8882;53.192;8.184;2023-04-24T13:49:25;6.00;;;3.33;;
17528;SDS011;8882;53.192;8.184;2023-04-24T13:51:51;9.97;;;3.30;;
17528;SDS011;8882;53.192;8.184;2023-04-24T13:54:18;6.30;;;3.10;;
17528;SDS011;8882;53.192;8.184;2023-04-24T13:56:43;6.00;;;3.07;;
17528;SDS011;8882;53.192;8.184;2023-04-24T13:59:09;3.97;;;2.97;;
17528;SDS011;8882;53.192;8.184;2023-04-24T14:01:34;7.60;;;3.30;;
17528;SDS011;8882;53.192;8.184;2023-04-24T14:04:00;5.27;;;3.57;;
17528;SDS011;8882;53.192;8.184;2023-04-24T14:06:25;8.27;;;3.30;;
17528;SDS011;8882;53.192;8.184;2023-04-24T14:08:51;7.23;;;3.10;;
17528;SDS011;8882;53.192;8.184;2023-04-24T14:11:17;6.33;;;3.07;;
17528;SDS011;8882;53.192;8.184;2023-04-24T14:13:43;6.83;;;3.53;;
17528;SDS011;8882;53.192;8.184;2023-04-24T14:16:10;7.50;;;3.30;;
17528;SDS011;8882;53.192;8.184;2023-04-24T14:18:36;5.80;;;3.10;;
17528;SDS011;8882;53.192;8.184;2023-04-24T14:21:02;4.50;;;3.60;;
17528;SDS011;8882;53.192;8.184;2023-04-24T14:23:28;5.33;;;3.00;;
17528;SDS011;8882;53.192;8.184;2023-04-24T14:25:54;7.43;;;2.90;;
17528;SDS011;8882;53.192;8.184;2023-04-24T14:28:20;4.67;;;2.40;;
17528;SDS011;8882;53.192;8.184;2023-04-24T14:30:46;4.97;;;3.23;;
17528;SDS011;8882;53.192;8.184;2023-04-24T14:33:12;4.70;;;2.87;;
17528;SDS011;8882;53.192;8.184;2023-04-24T14:35:38;3.97;;;2.33;;
17528;SDS011;8882;53.192;8.184;2023-04-24T14:38:07;4.87;;;2.50;;
17528;SDS011;8882;53.192;8.184;2023-04-24T14:40:33;3.90;;;2.10;;
17528;SDS011;8882;53.192;8.184;2023-04-24T14:42:59;5.77;;;2.20;;
17528;SDS011;8882;53.192;8.184;2023-04-24T14:45:25;1.63;;;1.53;;
17528;SDS011;8882;53.192;8.184;2023-04-24T14:47:51;5.27;;;1.90;;
17528;SDS011;8882;53.192;8.184;2023-04-24T14:50:17;4.50;;;1.73;;
17528;SDS011;8882;53.192;8.184;2023-04-24T14:52:42;3.40;;;1.80;;
17528;SDS011;8882;53.192;8.184;2023-04-24T14:55:08;5.73;;;1.80;;
17528;SDS011;8882;53.192;8.184;2023-04-24T14:57:34;3.23;;;1.80;;
17528;SDS011;8882;53.192;8.184;2023-04-24T15:00:01;5.60;;;1.97;;
17528;SDS011;8882;53.192;8.184;2023-04-24T15:02:33;5.20;;;2.23;;
17528;SDS011;8882;53.192;8.184;2023-04-24T15:04:59;2.63;;;1.60;;
17528;SDS011;8882;53.192;8.184;2023-04-24T15:07:24;3.93;;;1.67;;
17528;SDS011;8882;53.192;8.184;2023-04-24T15:09:50;4.93;;;1.93;;
17528;SDS011;8882;53.192;8.184;2023-04-24T15:12:15;3.93;;;2.07;;
17528;SDS011;8882;53.192;8.184;2023-04-24T15:14:41;2.23;;;1.97;;
17528;SDS011;8882;53.192;8.184;2023-04-24T15:17:07;3.37;;;2.00;;
17528;SDS011;8882;53.192;8.184;2023-04-24T15:19:32;4.23;;;1.87;;
17528;SDS011;8882;53.192;8.184;2023-04-24T15:21:58;2.57;;;1.90;;
17528;SDS011;8882;53.192;8.184;2023-04-24T15:24:23;2.17;;;1.67;;
17528;SDS011;8882;53.192;8.184;2023-04-24T15:26:49;2.70;;;2.20;;
17528;SDS011;8882;53.192;8.184;2023-04-24T15:29:14;4.30;;;2.37;;
17528;SDS011;8882;53.192;8.184;2023-04-24T15:31:40;8.10;;;5.33;;
17528;SDS011;8882;53.192;8.184;2023-04-24T15:34:06;29.67;;;13.83;;
17528;SDS011;8882;53.192;8.184;2023-04-24T15:36:31;23.13;;;13.07;;
17528;SDS011;8882;53.192;8.184;2023-04-24T15:38:57;3.87;;;2.07;;
17528;SDS011;8882;53.192;8.184;2023-04-24T15:41:23;7.43;;;4.23;;
17528;SDS011;8882;53.192;8.184;2023-04-24T15:43:48;3.90;;;3.07;;
17528;SDS011;8882;53.192;8.184;2023-04-24T15:46:14;4.67;;;2.77;;
17528;SDS011;8882;53.192;8.184;2023-04-24T15:48:41;6.23;;;3.20;;
17528;SDS011;8882;53.192;8.184;2023-04-24T15:51:07;8.93;;;4.40;;
17528;SDS011;8882;53.192;8.184;2023-04-24T15:53:33;3.90;;;2.73;;
17528;SDS011;8882;53.192;8.184;2023-04-24T15:55:58;6.17;;;2.47;;
17528;SDS011;8882;53.192;8.184;2023-04-24T15:58:24;3.23;;;1.90;;
17528;SDS011;8882;53.192;8.184;2023-04-24T16:00:49;2.53;;;1.23;;
17528;SDS011;8882;53.192;8.184;2023-04-24T16:03:15;5.43;;;2.23;;
17528;SDS011;8882;53.192;8.184;2023-04-24T16:05:41;4.37;;;2.00;;
17528;SDS011;8882;53.192;8.184;2023-04-24T16:08:06;4.10;;;2.70;;
17528;SDS011;8882;53.192;8.184;2023-04-24T16:10:32;4.20;;;2.20;;
17528;SDS011;8882;53.192;8.184;2023-04-24T16:12:58;4.30;;;2.13;;
17528;SDS011;8882;53.192;8.184;2023-04-24T16:15:28;2.80;;;2.07;;
17528;SDS011;8882;53.192;8.184;2023-04-24T16:17:53;1.90;;;1.80;;
17528;SDS011;8882;53.192;8.184;2023-04-24T16:20:19;4.30;;;1.83;;
17528;SDS011;8882;53.192;8.184;2023-04-24T16:22:45;3.87;;;1.70;;
17528;SDS011;8882;53.192;8.184;2023-04-24T16:25:10;3.30;;;2.10;;
17528;SDS011;8882;53.192;8.184;2023-04-24T16:27:36;4.00;;;2.20;;
17528;SDS011;8882;53.192;8.184;2023-04-24T16:30:02;5.73;;;2.23;;
17528;SDS011;8882;53.192;8.184;2023-04-24T16:32:28;1.70;;;1.60;;
17528;SDS011;8882;53.192;8.184;2023-04-24T16:34:54;4.40;;;2.20;;
17528;SDS011;8882;53.192;8.184;2023-04-24T16:37:19;4.13;;;2.17;;
17528;SDS011;8882;53.192;8.184;2023-04-24T16:39:45;2.87;;;2.10;;
17528;SDS011;8882;53.192;8.184;2023-04-24T16:42:11;3.13;;;2.40;;
17528;SDS011;8882;53.192;8.184;2023-04-24T16:44:38;2.87;;;2.43;;
17528;SDS011;8882;53.192;8.184;2023-04-24T16:47:04;4.07;;;2.47;;
17528;SDS011;8882;53.192;8.184;2023-04-24T16:49:33;5.20;;;2.67;;
17528;SDS011;8882;53.192;8.184;2023-04-24T16:52:00;5.83;;;2.77;;
17528;SDS011;8882;53.192;8.184;2023-04-24T16:54:26;6.13;;;2.20;;
17528;SDS011;8882;53.192;8.184;2023-04-24T16:56:52;3.13;;;1.63;;
17528;SDS011;8882;53.192;8.184;2023-04-24T16:59:18;4.30;;;1.80;;
17528;SDS011;8882;53.192;8.184;2023-04-24T17:01:44;3.07;;;2.00;;
17528;SDS011;8882;53.192;8.184;2023-04-24T17:04:09;3.03;;;1.73;;
17528;SDS011;8882;53.192;8.184;2023-04-24T17:06:35;5.70;;;1.63;;
17528;SDS011;8882;53.192;8.184;2023-04-24T17:09:00;4.37;;;1.90;;
17528;SDS011;8882;53.192;8.184;2023-04-24T17:11:27;2.67;;;2.10;;
17528;SDS011;8882;53.192;8.184;2023-04-24T17:13:53;2.07;;;1.63;;
17528;SDS011;8882;53.192;8.184;2023-04-24T17:16:18;3.93;;;1.70;;
17528;SDS011;8882;53.192;8.184;2023-04-24T17:18:44;4.03;;;1.70;;
17528;SDS011;8882;53.192;8.184;2023-04-24T17:21:10;5.43;;;1.73;;
17528;SDS011;8882;53.192;8.184;2023-04-24T17:23:35;5.17;;;2.03;;
17528;SDS011;8882;53.192;8.184;2023-04-24T17:26:01;5.10;;;1.80;;
17528;SDS011;8882;53.192;8.184;2023-04-24T17:28:27;3.47;;;1.63;;
17528;SDS011;8882;53.192;8.184;2023-04-24T17:30:55;2.30;;;2.03;;
17528;SDS011;8882;53.192;8.184;2023-04-24T17:33:25;3.70;;;1.67;;
17528;SDS011;8882;53.192;8.184;2023-04-24T17:35:54;5.60;;;2.07;;
17528;SDS011;8882;53.192;8.184;2023-04-24T17:38:21;2.87;;;1.60;;
17528;SDS011;8882;53.192;8.184;2023-04-24T17:40:47;3.27;;;1.47;;
17528;SDS011;8882;53.192;8.184;2023-04-24T17:43:17;4.40;;;2.03;;
17528;SDS011;8882;53.192;8.184;2023-04-24T17:45:43;2.83;;;1.90;;
17528;SDS011;8882;53.192;8.184;2023-04-24T17:48:10;3.50;;;1.90;;
17528;SDS011;8882;53.192;8.184;2023-04-24T17:50:36;5.47;;;1.77;;
17528;SDS011;8882;53.192;8.184;2023-04-24T17:53:01;4.50;;;2.00;;
17528;SDS011;8882;53.192;8.184;2023-04-24T17:55:27;4.90;;;2.00;;
17528;SDS011;8882;53.192;8.184;2023-04-24T17:57:52;3.80;;;2.30;;
17528;SDS011;8882;53.192;8.184;2023-04-24T18:00:18;2.40;;;1.80;;
17528;SDS011;8882;53.192;8.184;2023-04-24T18:02:44;5.20;;;1.80;;
17528;SDS011;8882;53.192;8.184;2023-04-24T18:05:09;4.40;;;2.43;;
17528;SDS011;8882;53.192;8.184;2023-04-24T18:07:35;2.33;;;1.87;;
17528;SDS011;8882;53.192;8.184;2023-04-24T18:10:01;7.53;;;2.10;;
17528;SDS011;8882;53.192;8.184;2023-04-24T18:12:27;6.83;;;1.90;;
17528;SDS011;8882;53.192;8.184;2023-04-24T18:14:53;2.40;;;2.10;;
17528;SDS011;8882;53.192;8.184;2023-04-24T18:17:18;4.07;;;1.73;;
17528;SDS011;8882;53.192;8.184;2023-04-24T18:19:44;2.47;;;2.10;;
17528;SDS011;8882;53.192;8.184;2023-04-24T18:22:09;6.27;;;1.87;;
17528;SDS011;8882;53.192;8.184;2023-04-24T18:24:35;3.13;;;2.00;;
17528;SDS011;8882;53.192;8.184;2023-04-24T18:27:00;6.63;;;1.90;;
17528;SDS011;8882;53.192;8.184;2023-04-24T18:29:26;2.17;;;1.90;;
17528;SDS011;8882;53.192;8.184;2023-04-24T18:31:52;6.33;;;2.63;;
17528;SDS011;8882;53.192;8.184;2023-04-24T18:34:17;7.17;;;2.83;;
17528;SDS011;8882;53.192;8.184;2023-04-24T18:36:43;5.50;;;2.37;;
17528;SDS011;8882;53.192;8.184;2023-04-24T18:39:08;6.00;;;2.03;;
17528;SDS011;8882;53.192;8.184;2023-04-24T18:41:34;4.53;;;2.37;;
17528;SDS011;8882;53.192;8.184;2023-04-24T18:43:59;5.77;;;2.30;;
17528;SDS011;8882;53.192;8.184;2023-04-24T18:46:25;3.00;;;1.93;;
17528;SDS011;8882;53.192;8.184;2023-04-24T18:48:50;3.23;;;2.30;;
17528;SDS011;8882;53.192;8.184;2023-04-24T18:51:16;5.37;;;2.93;;
17528;SDS011;8882;53.192;8.184;2023-04-24T18:53:41;2.53;;;1.73;;
17528;SDS011;8882;53.192;8.184;2023-04-24T18:56:07;4.40;;;2.30;;
17528;SDS011;8882;53.192;8.184;2023-04-24T18:58:32;5.37;;;2.03;;
17528;SDS011;8882;53.192;8.184;2023-04-24T19:00:58;7.53;;;1.70;;
17528;SDS011;8882;53.192;8.184;2023-04-24T19:03:23;5.00;;;2.10;;
17528;SDS011;8882;53.192;8.184;2023-04-24T19:05:49;4.97;;;2.30;;
17528;SDS011;8882;53.192;8.184;2023-04-24T19:08:14;5.43;;;2.20;;
17528;SDS011;8882;53.192;8.184;2023-04-24T19:10:41;3.37;;;2.30;;
17528;SDS011;8882;53.192;8.184;2023-04-24T19:13:07;4.13;;;2.30;;
17528;SDS011;8882;53.192;8.184;2023-04-24T19:15:33;5.50;;;2.43;;
17528;SDS011;8882;53.192;8.184;2023-04-24T19:17:58;4.80;;;2.33;;
17528;SDS011;8882;53.192;8.184;2023-04-24T19:20:24;2.47;;;1.80;;
17528;SDS011;8882;53.192;8.184;2023-04-24T19:22:50;5.20;;;1.80;;
17528;SDS011;8882;53.192;8.184;2023-04-24T19:25:16;4.60;;;2.00;;
17528;SDS011;8882;53.192;8.184;2023-04-24T19:27:41;4.87;;;2.17;;
17528;SDS011;8882;53.192;8.184;2023-04-24T19:30:07;3.30;;;2.40;;
17528;SDS011;8882;53.192;8.184;2023-04-24T19:32:33;5.77;;;2.43;;
17528;SDS011;8882;53.192;8.184;2023-04-24T19:34:58;6.20;;;1.97;;
17528;SDS011;8882;53.192;8.184;2023-04-24T19:37:24;2.43;;;2.10;;
17528;SDS011;8882;53.192;8.184;2023-04-24T19:39:50;2.57;;;1.97;;
17528;SDS011;8882;53.192;8.184;2023-04-24T19:42:15;3.37;;;2.00;;
17528;SDS011;8882;53.192;8.184;2023-04-24T19:44:41;2.33;;;1.83;;
17528;SDS011;8882;53.192;8.184;2023-04-24T19:47:07;3.20;;;2.23;;